Washington, Mississippi
Current Conditions -  °F | °C
As of 1:55 PM on Thursday 27 Nov 2014 (Local Time) from KHEZ Reporting Station
Clear Clear  
Wind Chill: 52°   Ceiling: Unl
Heat Index: 52°   Visibility: 10mi
Dew Point: 30°   Wind: 12mph
Humidity: 44%   Direction: 340°NNW
Pressure: 30.45"   Gusts: NA
Location:  31.58°N, 91.3°W
Report Text: KHEZ 271955Z AUTO 34010KT 10SM CLR 11/M01 A3045 RMK AO1
Loading
Personal Weather Stations






























Interactive Weather Map New forecast layout! Learn more

10-Day Weather Forecast

Advertisements
Track Severe Weather on mobile